Covert, Michigan
Current Conditions -  °F | °C
As of 3:15 PM on Friday 19 Dec 2014 (Local Time) from KLWA Reporting Station
Clear Clear  
Wind Chill: 26°   Ceiling: Unl
Heat Index: 33°   Visibility: 10mi
Dew Point: 21°   Wind: 8mph
Humidity: 62%   Direction: 360°N
Pressure: 30.25"   Gusts: NA
Location:  42.29°N, 86.26°W
Report Text: KLWA 192015Z AUTO 36007KT 10SM CLR 00/M06 A3025 RMK AO2 T00041062
Loading
Personal Weather Stations






























Interactive Weather Map New forecast layout! Learn more

10-Day Weather Forecast

Advertisements
Track Severe Weather on mobile